sensor_id;sensor_type;location;lat;lon;timestamp;pressure;altitude;pressure_sealevel;temperature;humidity
24306;BME280;12423;48.768;8.850;2022-10-16T00:01:21;96850.47;;;15.00;100.00
24306;BME280;12423;48.768;8.850;2022-10-16T00:03:22;96859.34;;;14.92;100.00
24306;BME280;12423;48.768;8.850;2022-10-16T00:05:23;96860.88;;;14.95;100.00
24306;BME280;12423;48.768;8.850;2022-10-16T00:07:24;96857.84;;;14.90;100.00
24306;BME280;12423;48.768;8.850;2022-10-16T00:09:25;96861.69;;;14.87;100.00
24306;BME280;12423;48.768;8.850;2022-10-16T00:11:31;96858.16;;;14.87;100.00
24306;BME280;12423;48.768;8.850;2022-10-16T00:13:35;96863.38;;;14.88;100.00
24306;BME280;12423;48.768;8.850;2022-10-16T00:15:36;96867.06;;;14.87;100.00
24306;BME280;12423;48.768;8.850;2022-10-16T00:17:37;96862.31;;;14.81;100.00
24306;BME280;12423;48.768;8.850;2022-10-16T00:19:38;96859.00;;;14.87;100.00
24306;BME280;12423;48.768;8.850;2022-10-16T00:21:39;96855.31;;;14.88;100.00
24306;BME280;12423;48.768;8.850;2022-10-16T00:23:41;96869.44;;;14.99;100.00
24306;BME280;12423;48.768;8.850;2022-10-16T00:25:42;96854.13;;;14.99;100.00
24306;BME280;12423;48.768;8.850;2022-10-16T00:27:43;96864.41;;;14.96;100.00
24306;BME280;12423;48.768;8.850;2022-10-16T00:29:44;96860.16;;;14.93;100.00
24306;BME280;12423;48.768;8.850;2022-10-16T00:31:45;96853.28;;;14.90;100.00
24306;BME280;12423;48.768;8.850;2022-10-16T00:33:46;96866.59;;;15.00;100.00
24306;BME280;12423;48.768;8.850;2022-10-16T00:35:48;96866.09;;;15.05;100.00
24306;BME280;12423;48.768;8.850;2022-10-16T00:37:49;96858.88;;;15.14;100.00
24306;BME280;12423;48.768;8.850;2022-10-16T00:39:50;96863.44;;;15.21;100.00
24306;BME280;12423;48.768;8.850;2022-10-16T00:41:51;96863.78;;;15.18;100.00
24306;BME280;12423;48.768;8.850;2022-10-16T00:43:57;96855.22;;;15.23;100.00
24306;BME280;12423;48.768;8.850;2022-10-16T00:46:00;96855.72;;;15.18;100.00
24306;BME280;12423;48.768;8.850;2022-10-16T00:48:02;96861.44;;;15.23;100.00
24306;BME280;12423;48.768;8.850;2022-10-16T00:50:31;96864.13;;;15.32;100.00
24306;BME280;12423;48.768;8.850;2022-10-16T00:52:34;96864.63;;;15.35;100.00
24306;BME280;12423;48.768;8.850;2022-10-16T00:54:35;96872.22;;;15.40;100.00
24306;BME280;12423;48.768;8.850;2022-10-16T00:56:36;96861.78;;;15.37;100.00
24306;BME280;12423;48.768;8.850;2022-10-16T00:58:38;96857.41;;;15.36;100.00
24306;BME280;12423;48.768;8.850;2022-10-16T01:00:39;96866.84;;;15.40;100.00
24306;BME280;12423;48.768;8.850;2022-10-16T01:02:40;96871.00;;;15.34;100.00
24306;BME280;12423;48.768;8.850;2022-10-16T01:04:47;96871.38;;;15.39;100.00
24306;BME280;12423;48.768;8.850;2022-10-16T01:07:14;96870.84;;;15.36;100.00
24306;BME280;12423;48.768;8.850;2022-10-16T01:09:35;96863.47;;;15.38;100.00
24306;BME280;12423;48.768;8.850;2022-10-16T01:11:45;96865.47;;;15.36;100.00
24306;BME280;12423;48.768;8.850;2022-10-16T01:13:54;96870.84;;;15.36;100.00
24306;BME280;12423;48.768;8.850;2022-10-16T01:16:10;96866.50;;;15.35;100.00
24306;BME280;12423;48.768;8.850;2022-10-16T01:20:35;96875.56;;;15.34;100.00
24306;BME280;12423;48.768;8.850;2022-10-16T01:22:43;96864.31;;;15.38;100.00
24306;BME280;12423;48.768;8.850;2022-10-16T01:24:48;96868.50;;;15.41;100.00
24306;BME280;12423;48.768;8.850;2022-10-16T01:31:18;96875.25;;;15.53;100.00
24306;BME280;12423;48.768;8.850;2022-10-16T01:33:24;96872.91;;;15.50;100.00
24306;BME280;12423;48.768;8.850;2022-10-16T01:35:32;96867.00;;;15.55;100.00
24306;BME280;12423;48.768;8.850;2022-10-16T01:39:47;96859.09;;;15.53;100.00
24306;BME280;12423;48.768;8.850;2022-10-16T01:42:24;96856.41;;;15.53;100.00
24306;BME280;12423;48.768;8.850;2022-10-16T01:44:32;96855.03;;;15.49;100.00
24306;BME280;12423;48.768;8.850;2022-10-16T01:46:36;96854.53;;;15.45;100.00
24306;BME280;12423;48.768;8.850;2022-10-16T01:48:38;96853.06;;;15.51;100.00
24306;BME280;12423;48.768;8.850;2022-10-16T01:50:41;96858.09;;;15.46;100.00
24306;BME280;12423;48.768;8.850;2022-10-16T01:52:47;96865.16;;;15.39;100.00
24306;BME280;12423;48.768;8.850;2022-10-16T01:54:51;96860.94;;;15.36;100.00
24306;BME280;12423;48.768;8.850;2022-10-16T01:56:54;96857.72;;;15.41;100.00
24306;BME280;12423;48.768;8.850;2022-10-16T01:59:06;96852.34;;;15.41;100.00
24306;BME280;12423;48.768;8.850;2022-10-16T02:01:11;96859.25;;;15.35;100.00
24306;BME280;12423;48.768;8.850;2022-10-16T02:03:16;96860.09;;;15.36;100.00
24306;BME280;12423;48.768;8.850;2022-10-16T02:05:26;96867.31;;;15.35;100.00
24306;BME280;12423;48.768;8.850;2022-10-16T02:07:29;96863.47;;;15.38;100.00
24306;BME280;12423;48.768;8.850;2022-10-16T02:09:32;96859.91;;;15.37;100.00
24306;BME280;12423;48.768;8.850;2022-10-16T02:11:34;96865.47;;;15.36;100.00
24306;BME280;12423;48.768;8.850;2022-10-16T02:14:06;96863.81;;;15.35;100.00
24306;BME280;12423;48.768;8.850;2022-10-16T02:16:09;96866.66;;;15.33;100.00
24306;BME280;12423;48.768;8.850;2022-10-16T02:18:11;96865.13;;;15.30;100.00
24306;BME280;12423;48.768;8.850;2022-10-16T02:20:12;96860.06;;;15.27;100.00
24306;BME280;12423;48.768;8.850;2022-10-16T02:22:30;96861.09;;;15.18;100.00
24306;BME280;12423;48.768;8.850;2022-10-16T02:24:38;96858.53;;;15.08;100.00
24306;BME280;12423;48.768;8.850;2022-10-16T02:29:04;96860.38;;;15.00;100.00
24306;BME280;12423;48.768;8.850;2022-10-16T02:31:11;96859.84;;;14.96;100.00
24306;BME280;12423;48.768;8.850;2022-10-16T02:33:15;96857.66;;;14.91;100.00
24306;BME280;12423;48.768;8.850;2022-10-16T02:35:18;96868.91;;;14.87;100.00
24306;BME280;12423;48.768;8.850;2022-10-16T02:37:21;96869.41;;;14.82;100.00
24306;BME280;12423;48.768;8.850;2022-10-16T02:39:22;96874.78;;;14.82;100.00
24306;BME280;12423;48.768;8.850;2022-10-16T02:41:23;96868.03;;;14.78;100.00
24306;BME280;12423;48.768;8.850;2022-10-16T02:43:25;96877.44;;;14.74;100.00
24306;BME280;12423;48.768;8.850;2022-10-16T02:45:26;96885.81;;;14.71;100.00
24306;BME280;12423;48.768;8.850;2022-10-16T02:47:27;96885.16;;;14.69;100.00
24306;BME280;12423;48.768;8.850;2022-10-16T02:49:28;96881.44;;;14.70;100.00
24306;BME280;12423;48.768;8.850;2022-10-16T02:51:29;96882.47;;;14.69;100.00
24306;BME280;12423;48.768;8.850;2022-10-16T02:53:30;96879.44;;;14.72;100.00
24306;BME280;12423;48.768;8.850;2022-10-16T02:55:31;96880.75;;;14.68;100.00
24306;BME280;12423;48.768;8.850;2022-10-16T02:57:33;96880.41;;;14.63;100.00
24306;BME280;12423;48.768;8.850;2022-10-16T02:59:34;96880.56;;;14.61;100.00
24306;BME280;12423;48.768;8.850;2022-10-16T03:01:35;96880.84;;;14.58;100.00
24306;BME280;12423;48.768;8.850;2022-10-16T03:03:36;96878.31;;;14.56;100.00
24306;BME280;12423;48.768;8.850;2022-10-16T03:05:37;96883.19;;;14.53;100.00
24306;BME280;12423;48.768;8.850;2022-10-16T03:07:38;96884.72;;;14.55;100.00
24306;BME280;12423;48.768;8.850;2022-10-16T03:09:39;96892.09;;;14.53;100.00
24306;BME280;12423;48.768;8.850;2022-10-16T03:11:40;96890.72;;;14.49;100.00
24306;BME280;12423;48.768;8.850;2022-10-16T03:13:41;96884.38;;;14.50;100.00
24306;BME280;12423;48.768;8.850;2022-10-16T03:15:43;96898.13;;;14.47;100.00
24306;BME280;12423;48.768;8.850;2022-10-16T03:17:44;96893.56;;;14.48;100.00
24306;BME280;12423;48.768;8.850;2022-10-16T03:19:45;96888.69;;;14.43;100.00
24306;BME280;12423;48.768;8.850;2022-10-16T03:21:46;96891.38;;;14.43;100.00
24306;BME280;12423;48.768;8.850;2022-10-16T03:23:47;96885.63;;;14.38;100.00
24306;BME280;12423;48.768;8.850;2022-10-16T03:25:48;96900.25;;;14.35;100.00
24306;BME280;12423;48.768;8.850;2022-10-16T03:27:49;96898.88;;;14.31;100.00
24306;BME280;12423;48.768;8.850;2022-10-16T03:29:50;96895.34;;;14.31;100.00
24306;BME280;12423;48.768;8.850;2022-10-16T03:31:51;96893.28;;;14.25;100.00
24306;BME280;12423;48.768;8.850;2022-10-16T03:33:52;96896.19;;;14.31;100.00
24306;BME280;12423;48.768;8.850;2022-10-16T03:35:54;96897.16;;;14.30;100.00
24306;BME280;12423;48.768;8.850;2022-10-16T03:37:55;96894.81;;;14.27;100.00
24306;BME280;12423;48.768;8.850;2022-10-16T03:39:57;96887.28;;;14.31;100.00
24306;BME280;12423;48.768;8.850;2022-10-16T03:41:58;96894.00;;;14.35;100.00
24306;BME280;12423;48.768;8.850;2022-10-16T03:43:59;96896.53;;;14.36;100.00
24306;BME280;12423;48.768;8.850;2022-10-16T03:46:00;96898.91;;;14.40;100.00
24306;BME280;12423;48.768;8.850;2022-10-16T03:48:01;96897.75;;;14.42;100.00
24306;BME280;12423;48.768;8.850;2022-10-16T03:50:04;96897.44;;;14.45;100.00
24306;BME280;12423;48.768;8.850;2022-10-16T03:52:05;96895.94;;;14.51;100.00
24306;BME280;12423;48.768;8.850;2022-10-16T03:54:06;96890.41;;;14.52;100.00
24306;BME280;12423;48.768;8.850;2022-10-16T03:56:07;96893.78;;;14.54;100.00
24306;BME280;12423;48.768;8.850;2022-10-16T03:58:08;96903.09;;;14.60;100.00
24306;BME280;12423;48.768;8.850;2022-10-16T04:00:10;96893.63;;;14.56;100.00
24306;BME280;12423;48.768;8.850;2022-10-16T04:02:14;96891.31;;;14.61;100.00
24306;BME280;12423;48.768;8.850;2022-10-16T04:04:15;96892.16;;;14.62;100.00
24306;BME280;12423;48.768;8.850;2022-10-16T04:06:16;96890.31;;;14.62;100.00
24306;BME280;12423;48.768;8.850;2022-10-16T04:08:17;96890.00;;;14.65;100.00
24306;BME280;12423;48.768;8.850;2022-10-16T04:10:19;96887.16;;;14.67;100.00
24306;BME280;12423;48.768;8.850;2022-10-16T04:12:20;96882.41;;;14.61;100.00
24306;BME280;12423;48.768;8.850;2022-10-16T04:14:21;96881.41;;;14.62;100.00
24306;BME280;12423;48.768;8.850;2022-10-16T04:16:22;96884.47;;;14.67;100.00
24306;BME280;12423;48.768;8.850;2022-10-16T04:18:22;96882.09;;;14.64;100.00
24306;BME280;12423;48.768;8.850;2022-10-16T04:20:24;96886.78;;;14.62;100.00
24306;BME280;12423;48.768;8.850;2022-10-16T04:22:25;96893.03;;;14.62;100.00
24306;BME280;12423;48.768;8.850;2022-10-16T04:24:26;96895.69;;;14.62;100.00
24306;BME280;12423;48.768;8.850;2022-10-16T04:26:27;96894.59;;;14.55;100.00
24306;BME280;12423;48.768;8.850;2022-10-16T04:28:28;96895.47;;;14.55;100.00
24306;BME280;12423;48.768;8.850;2022-10-16T04:30:29;96895.69;;;14.62;100.00
24306;BME280;12423;48.768;8.850;2022-10-16T04:32:30;96893.69;;;14.64;100.00
24306;BME280;12423;48.768;8.850;2022-10-16T04:34:31;96891.16;;;14.63;100.00
24306;BME280;12423;48.768;8.850;2022-10-16T04:36:32;96899.22;;;14.63;100.00
24306;BME280;12423;48.768;8.850;2022-10-16T04:38:33;96902.09;;;14.69;100.00
24306;BME280;12423;48.768;8.850;2022-10-16T04:40:34;96911.44;;;14.83;100.00
24306;BME280;12423;48.768;8.850;2022-10-16T04:42:37;96911.47;;;14.91;100.00
24306;BME280;12423;48.768;8.850;2022-10-16T04:44:38;96903.44;;;15.16;100.00
24306;BME280;12423;48.768;8.850;2022-10-16T04:46:39;96915.53;;;15.12;100.00
24306;BME280;12423;48.768;8.850;2022-10-16T04:48:40;96914.91;;;15.18;100.00
24306;BME280;12423;48.768;8.850;2022-10-16T04:50:41;96906.81;;;15.18;100.00
24306;BME280;12423;48.768;8.850;2022-10-16T04:52:42;96920.78;;;15.22;100.00
24306;BME280;12423;48.768;8.850;2022-10-16T04:54:43;96919.78;;;15.23;100.00
24306;BME280;12423;48.768;8.850;2022-10-16T04:56:45;96911.72;;;15.23;100.00
24306;BME280;12423;48.768;8.850;2022-10-16T04:58:51;96915.38;;;15.14;100.00
24306;BME280;12423;48.768;8.850;2022-10-16T05:00:52;96920.25;;;15.10;100.00
24306;BME280;12423;48.768;8.850;2022-10-16T05:02:53;96919.56;;;15.00;100.00
24306;BME280;12423;48.768;8.850;2022-10-16T05:04:59;96912.81;;;14.96;100.00
24306;BME280;12423;48.768;8.850;2022-10-16T05:07:00;96907.75;;;14.92;100.00
24306;BME280;12423;48.768;8.850;2022-10-16T05:09:02;96908.75;;;14.83;100.00
24306;BME280;12423;48.768;8.850;2022-10-16T05:11:03;96911.91;;;14.79;100.00
24306;BME280;12423;48.768;8.850;2022-10-16T05:13:04;96915.06;;;14.74;100.00
24306;BME280;12423;48.768;8.850;2022-10-16T05:15:06;96917.09;;;14.72;100.00
24306;BME280;12423;48.768;8.850;2022-10-16T05:17:07;96917.72;;;14.66;100.00
24306;BME280;12423;48.768;8.850;2022-10-16T05:19:08;96912.66;;;14.63;100.00
24306;BME280;12423;48.768;8.850;2022-10-16T05:21:09;96918.03;;;14.63;100.00
24306;BME280;12423;48.768;8.850;2022-10-16T05:23:10;96925.72;;;14.57;100.00
24306;BME280;12423;48.768;8.850;2022-10-16T05:25:12;96916.63;;;14.50;100.00
24306;BME280;12423;48.768;8.850;2022-10-16T05:27:13;96935.63;;;14.57;100.00
24306;BME280;12423;48.768;8.850;2022-10-16T05:29:19;96923.34;;;14.54;100.00
24306;BME280;12423;48.768;8.850;2022-10-16T05:31:20;96922.16;;;14.49;100.00
24306;BME280;12423;48.768;8.850;2022-10-16T05:33:23;96933.69;;;14.41;100.00
24306;BME280;12423;48.768;8.850;2022-10-16T05:35:25;96926.25;;;14.35;100.00
24306;BME280;12423;48.768;8.850;2022-10-16T05:37:29;96934.09;;;14.28;100.00
24306;BME280;12423;48.768;8.850;2022-10-16T05:39:30;96940.16;;;14.30;100.00
24306;BME280;12423;48.768;8.850;2022-10-16T05:41:31;96937.47;;;14.30;100.00
24306;BME280;12423;48.768;8.850;2022-10-16T05:43:32;96945.00;;;14.27;100.00
24306;BME280;12423;48.768;8.850;2022-10-16T05:45:33;96944.75;;;14.38;100.00
24306;BME280;12423;48.768;8.850;2022-10-16T05:47:34;96952.50;;;14.41;100.00
24306;BME280;12423;48.768;8.850;2022-10-16T05:49:36;96942.06;;;14.38;100.00
24306;BME280;12423;48.768;8.850;2022-10-16T05:51:36;96944.91;;;14.36;100.00
24306;BME280;12423;48.768;8.850;2022-10-16T05:53:39;96949.44;;;14.36;100.00
24306;BME280;12423;48.768;8.850;2022-10-16T05:55:40;96956.81;;;14.34;100.00
24306;BME280;12423;48.768;8.850;2022-10-16T05:57:41;96958.13;;;14.30;100.00
24306;BME280;12423;48.768;8.850;2022-10-16T05:59:42;96963.34;;;14.31;100.00
24306;BME280;12423;48.768;8.850;2022-10-16T06:01:43;96956.97;;;14.32;100.00
24306;BME280;12423;48.768;8.850;2022-10-16T06:03:44;96963.50;;;14.30;100.00
24306;BME280;12423;48.768;8.850;2022-10-16T06:05:45;96959.66;;;14.32;100.00
24306;BME280;12423;48.768;8.850;2022-10-16T06:07:46;96970.63;;;14.39;100.00
24306;BME280;12423;48.768;8.850;2022-10-16T06:09:51;96964.19;;;14.32;100.00
24306;BME280;12423;48.768;8.850;2022-10-16T06:11:53;96967.25;;;14.37;100.00
24306;BME280;12423;48.768;8.850;2022-10-16T06:13:56;96964.72;;;14.35;100.00
24306;BME280;12423;48.768;8.850;2022-10-16T06:15:59;96965.88;;;14.33;100.00
24306;BME280;12423;48.768;8.850;2022-10-16T06:18:00;96959.16;;;14.29;100.00
24306;BME280;12423;48.768;8.850;2022-10-16T06:20:01;96965.97;;;14.23;100.00
24306;BME280;12423;48.768;8.850;2022-10-16T06:22:02;96957.44;;;14.28;100.00
24306;BME280;12423;48.768;8.850;2022-10-16T06:24:05;96962.19;;;14.34;100.00
24306;BME280;12423;48.768;8.850;2022-10-16T06:26:07;96960.59;;;14.23;100.00
24306;BME280;12423;48.768;8.850;2022-10-16T06:28:08;96968.19;;;14.28;100.00
24306;BME280;12423;48.768;8.850;2022-10-16T06:30:09;96977.25;;;14.27;100.00
24306;BME280;12423;48.768;8.850;2022-10-16T06:32:10;96975.28;;;14.29;100.00
24306;BME280;12423;48.768;8.850;2022-10-16T06:34:11;96990.38;;;14.30;100.00
24306;BME280;12423;48.768;8.850;2022-10-16T06:36:15;96985.00;;;14.30;100.00
24306;BME280;12423;48.768;8.850;2022-10-16T06:38:16;96988.75;;;14.37;100.00
24306;BME280;12423;48.768;8.850;2022-10-16T06:40:17;96982.38;;;14.38;100.00
24306;BME280;12423;48.768;8.850;2022-10-16T06:42:18;96989.19;;;14.50;100.00
24306;BME280;12423;48.768;8.850;2022-10-16T06:44:19;96984.09;;;14.65;100.00
24306;BME280;12423;48.768;8.850;2022-10-16T06:46:23;96984.66;;;14.77;100.00
24306;BME280;12423;48.768;8.850;2022-10-16T06:48:25;96986.00;;;14.81;100.00
24306;BME280;12423;48.768;8.850;2022-10-16T06:50:26;96990.63;;;14.97;100.00
24306;BME280;12423;48.768;8.850;2022-10-16T06:52:30;96995.38;;;15.03;100.00
24306;BME280;12423;48.768;8.850;2022-10-16T06:54:31;96997.38;;;15.01;100.00
24306;BME280;12423;48.768;8.850;2022-10-16T06:56:33;96999.66;;;15.22;100.00
24306;BME280;12423;48.768;8.850;2022-10-16T06:58:34;97003.38;;;15.21;100.00
24306;BME280;12423;48.768;8.850;2022-10-16T07:00:35;97007.69;;;15.14;100.00
24306;BME280;12423;48.768;8.850;2022-10-16T07:02:36;97007.53;;;15.16;100.00
24306;BME280;12423;48.768;8.850;2022-10-16T07:04:37;97011.41;;;15.13;100.00
24306;BME280;12423;48.768;8.850;2022-10-16T07:06:38;97025.00;;;15.11;100.00
24306;BME280;12423;48.768;8.850;2022-10-16T07:08:41;97023.47;;;15.09;100.00
24306;BME280;12423;48.768;8.850;2022-10-16T07:10:42;97033.41;;;15.08;100.00
24306;BME280;12423;48.768;8.850;2022-10-16T07:12:43;97043.34;;;15.08;100.00
24306;BME280;12423;48.768;8.850;2022-10-16T07:14:45;97045.31;;;15.06;100.00
24306;BME280;12423;48.768;8.850;2022-10-16T07:16:47;97050.84;;;15.04;100.00
24306;BME280;12423;48.768;8.850;2022-10-16T07:18:48;97048.72;;;15.08;100.00
24306;BME280;12423;48.768;8.850;2022-10-16T07:20:50;97049.91;;;15.14;100.00
24306;BME280;12423;48.768;8.850;2022-10-16T07:22:51;97048.44;;;15.27;100.00
24306;BME280;12423;48.768;8.850;2022-10-16T07:24:52;97042.94;;;15.37;100.00
24306;BME280;12423;48.768;8.850;2022-10-16T07:26:53;97038.06;;;15.41;100.00
24306;BME280;12423;48.768;8.850;2022-10-16T07:28:54;97033.06;;;15.46;100.00
24306;BME280;12423;48.768;8.850;2022-10-16T07:30:55;97044.53;;;15.56;100.00
24306;BME280;12423;48.768;8.850;2022-10-16T07:33:00;97039.34;;;15.63;100.00
24306;BME280;12423;48.768;8.850;2022-10-16T07:35:01;97047.59;;;15.70;100.00
24306;BME280;12423;48.768;8.850;2022-10-16T07:37:02;97037.41;;;15.90;100.00
24306;BME280;12423;48.768;8.850;2022-10-16T07:39:04;97041.63;;;16.00;100.00
24306;BME280;12423;48.768;8.850;2022-10-16T07:41:07;97045.00;;;16.02;100.00
24306;BME280;12423;48.768;8.850;2022-10-16T07:43:08;97047.69;;;16.11;100.00
24306;BME280;12423;48.768;8.850;2022-10-16T07:45:09;97053.28;;;16.17;100.00
24306;BME280;12423;48.768;8.850;2022-10-16T07:47:10;97055.31;;;16.32;100.00
24306;BME280;12423;48.768;8.850;2022-10-16T07:49:11;97052.09;;;16.36;100.00
24306;BME280;12423;48.768;8.850;2022-10-16T07:51:17;97055.09;;;16.50;100.00
24306;BME280;12423;48.768;8.850;2022-10-16T07:53:18;97045.34;;;16.57;100.00
24306;BME280;12423;48.768;8.850;2022-10-16T07:55:19;97057.47;;;16.61;100.00
24306;BME280;12423;48.768;8.850;2022-10-16T07:57:20;97057.28;;;16.79;100.00
24306;BME280;12423;48.768;8.850;2022-10-16T07:59:21;97057.78;;;16.91;100.00
24306;BME280;12423;48.768;8.850;2022-10-16T08:01:22;97054.25;;;16.90;100.00
24306;BME280;12423;48.768;8.850;2022-10-16T08:03:23;97053.91;;;17.02;100.00
24306;BME280;12423;48.768;8.850;2022-10-16T08:05:24;97055.59;;;17.03;100.00
24306;BME280;12423;48.768;8.850;2022-10-16T08:07:25;97068.53;;;17.16;100.00
24306;BME280;12423;48.768;8.850;2022-10-16T08:09:26;97064.13;;;17.31;100.00
24306;BME280;12423;48.768;8.850;2022-10-16T08:11:27;97071.72;;;17.27;100.00
24306;BME280;12423;48.768;8.850;2022-10-16T08:13:28;97079.28;;;17.32;100.00
24306;BME280;12423;48.768;8.850;2022-10-16T08:15:29;97078.94;;;17.35;100.00
24306;BME280;12423;48.768;8.850;2022-10-16T08:17:30;97090.22;;;17.39;100.00
24306;BME280;12423;48.768;8.850;2022-10-16T08:19:31;97094.78;;;17.38;100.00
24306;BME280;12423;48.768;8.850;2022-10-16T08:21:34;97088.91;;;17.35;100.00
24306;BME280;12423;48.768;8.850;2022-10-16T08:23:35;97090.78;;;17.34;100.00
24306;BME280;12423;48.768;8.850;2022-10-16T08:25:37;97087.91;;;17.36;100.00
24306;BME280;12423;48.768;8.850;2022-10-16T08:27:38;97092.59;;;17.34;100.00
24306;BME280;12423;48.768;8.850;2022-10-16T08:29:39;97084.81;;;17.39;100.00
24306;BME280;12423;48.768;8.850;2022-10-16T08:31:40;97091.09;;;17.39;100.00
24306;BME280;12423;48.768;8.850;2022-10-16T08:33:44;97091.72;;;17.49;100.00
24306;BME280;12423;48.768;8.850;2022-10-16T08:35:53;97092.91;;;17.47;100.00
24306;BME280;12423;48.768;8.850;2022-10-16T08:37:54;97104.38;;;17.57;100.00
24306;BME280;12423;48.768;8.850;2022-10-16T08:39:55;97103.16;;;17.60;100.00
24306;BME280;12423;48.768;8.850;2022-10-16T08:42:19;97110.97;;;17.46;100.00
24306;BME280;12423;48.768;8.850;2022-10-16T08:49:19;97107.59;;;17.53;100.00
24306;BME280;12423;48.768;8.850;2022-10-16T08:51:29;97109.25;;;17.54;100.00
24306;BME280;12423;48.768;8.850;2022-10-16T08:53:39;97107.59;;;17.53;100.00
24306;BME280;12423;48.768;8.850;2022-10-16T08:55:46;97105.19;;;17.58;100.00
24306;BME280;12423;48.768;8.850;2022-10-16T08:57:50;97103.63;;;17.63;100.00
24306;BME280;12423;48.768;8.850;2022-10-16T08:59:51;97093.66;;;17.72;100.00
24306;BME280;12423;48.768;8.850;2022-10-16T09:01:53;97090.38;;;17.85;100.00
24306;BME280;12423;48.768;8.850;2022-10-16T09:11:17;97113.16;;;17.99;100.00
24306;BME280;12423;48.768;8.850;2022-10-16T09:13:29;97111.78;;;17.95;100.00
24306;BME280;12423;48.768;8.850;2022-10-16T09:15:53;97120.22;;;18.00;100.00
24306;BME280;12423;48.768;8.850;2022-10-16T09:22:15;97112.16;;;17.92;100.00
24306;BME280;12423;48.768;8.850;2022-10-16T09:24:23;97117.84;;;18.05;100.00
24306;BME280;12423;48.768;8.850;2022-10-16T09:26:24;97120.81;;;18.18;100.00
24306;BME280;12423;48.768;8.850;2022-10-16T09:28:26;97122.59;;;18.26;100.00
24306;BME280;12423;48.768;8.850;2022-10-16T09:30:28;97124.06;;;18.37;100.00
24306;BME280;12423;48.768;8.850;2022-10-16T09:32:33;97127.44;;;18.39;100.00
24306;BME280;12423;48.768;8.850;2022-10-16T09:34:36;97117.78;;;18.45;100.00
24306;BME280;12423;48.768;8.850;2022-10-16T09:36:44;97124.91;;;18.60;100.00
24306;BME280;12423;48.768;8.850;2022-10-16T09:38:46;97127.91;;;18.66;100.00
24306;BME280;12423;48.768;8.850;2022-10-16T09:40:47;97121.25;;;18.76;100.00
24306;BME280;12423;48.768;8.850;2022-10-16T09:42:48;97130.44;;;18.90;100.00
24306;BME280;12423;48.768;8.850;2022-10-16T09:44:50;97127.94;;;19.04;100.00
24306;BME280;12423;48.768;8.850;2022-10-16T09:47:15;97133.69;;;19.24;100.00
24306;BME280;12423;48.768;8.850;2022-10-16T09:49:23;97137.53;;;19.29;100.00
24306;BME280;12423;48.768;8.850;2022-10-16T09:51:35;97130.06;;;19.31;100.00
24306;BME280;12423;48.768;8.850;2022-10-16T09:53:45;97138.94;;;19.40;100.00
24306;BME280;12423;48.768;8.850;2022-10-16T09:55:50;97144.38;;;19.40;100.00
24306;BME280;12423;48.768;8.850;2022-10-16T09:57:55;97142.13;;;19.59;100.00
24306;BME280;12423;48.768;8.850;2022-10-16T09:59:57;97145.78;;;19.81;100.00
24306;BME280;12423;48.768;8.850;2022-10-16T10:02:04;97126.88;;;20.02;100.00
24306;BME280;12423;48.768;8.850;2022-10-16T10:04:12;97128.84;;;20.09;100.00
24306;BME280;12423;48.768;8.850;2022-10-16T10:06:20;97126.59;;;20.34;100.00
24306;BME280;12423;48.768;8.850;2022-10-16T10:08:22;97137.00;;;19.94;100.00
24306;BME280;12423;48.768;8.850;2022-10-16T10:10:26;97133.34;;;20.01;100.00
24306;BME280;12423;48.768;8.850;2022-10-16T10:12:29;97140.34;;;19.96;100.00
24306;BME280;12423;48.768;8.850;2022-10-16T10:14:42;97144.09;;;20.10;100.00
24306;BME280;12423;48.768;8.850;2022-10-16T10:16:46;97140.09;;;20.27;100.00
24306;BME280;12423;48.768;8.850;2022-10-16T10:18:57;97142.44;;;20.30;100.00
24306;BME280;12423;48.768;8.850;2022-10-16T10:21:02;97146.34;;;20.28;100.00
24306;BME280;12423;48.768;8.850;2022-10-16T10:23:36;97151.09;;;20.40;100.00
24306;BME280;12423;48.768;8.850;2022-10-16T10:30:45;97145.91;;;20.82;100.00
24306;BME280;12423;48.768;8.850;2022-10-16T10:35:19;97142.66;;;21.43;100.00
24306;BME280;12423;48.768;8.850;2022-10-16T10:42:19;97135.94;;;22.77;96.32
24306;BME280;12423;48.768;8.850;2022-10-16T10:51:04;97128.19;;;26.28;76.80
24306;BME280;12423;48.768;8.850;2022-10-16T10:53:24;97130.78;;;26.23;76.41
24306;BME280;12423;48.768;8.850;2022-10-16T10:55:37;97131.09;;;26.94;70.44
24306;BME280;12423;48.768;8.850;2022-10-16T11:00:26;97134.34;;;25.86;71.63
24306;BME280;12423;48.768;8.850;2022-10-16T11:02:37;97132.41;;;25.50;73.14
24306;BME280;12423;48.768;8.850;2022-10-16T11:07:02;97133.34;;;24.87;78.63
24306;BME280;12423;48.768;8.850;2022-10-16T11:11:57;97131.50;;;25.06;77.91
24306;BME280;12423;48.768;8.850;2022-10-16T11:16:24;97145.16;;;24.80;81.74
24306;BME280;12423;48.768;8.850;2022-10-16T11:18:44;97143.59;;;24.59;82.40
24306;BME280;12423;48.768;8.850;2022-10-16T11:20:53;97139.44;;;24.43;82.94
24306;BME280;12423;48.768;8.850;2022-10-16T11:23:00;97139.50;;;24.30;84.76
24306;BME280;12423;48.768;8.850;2022-10-16T11:27:18;97135.09;;;24.74;80.73
24306;BME280;12423;48.768;8.850;2022-10-16T11:29:26;97130.72;;;24.98;78.59
24306;BME280;12423;48.768;8.850;2022-10-16T11:31:38;97125.22;;;25.05;79.28
24306;BME280;12423;48.768;8.850;2022-10-16T11:36:23;97130.03;;;25.35;75.97
24306;BME280;12423;48.768;8.850;2022-10-16T11:43:32;97120.22;;;25.89;77.93
24306;BME280;12423;48.768;8.850;2022-10-16T11:45:47;97117.28;;;26.40;73.67
24306;BME280;12423;48.768;8.850;2022-10-16T11:48:15;97119.50;;;26.80;73.15
24306;BME280;12423;48.768;8.850;2022-10-16T11:50:36;97112.03;;;27.11;70.69
24306;BME280;12423;48.768;8.850;2022-10-16T11:55:05;97111.91;;;26.94;71.19
24306;BME280;12423;48.768;8.850;2022-10-16T11:57:19;97112.84;;;26.08;69.80